Aviation Digital Data Service (ADDS)

Output produced by METARs form (0629 UTC 19 February 2019)
found at http://www.aviationweather.gov/metar/data/
 
Forecast for: LOWG (GRAZ (MIL/CIV) , AT)
Text: TAF LOWG 190515Z 1906/2006 VRB02KT CAVOK TX13/1914Z TNM03/1906Z
Forecast period: 0600 UTC 19 February 2019 to 0600 UTC 20 February 2019
Forecast type: FROM: standard forecast or significant change
Winds: variable direction winds at 2 MPH (2 knots; 1.0 m/s)
Visibility: 6 or more miles 10+ km)
Ceiling: unknown
Clouds: missing
Weather: no significant weather forecast for this period
Text: PROB30
Forecast period: 0600 to 0700 UTC 19 February 2019
Forecast type: TEMPORARY: The following changes expected for less than half the time period
Visibility: 0.43 miles (0.69 km)
Ceiling: unknown
Clouds: missing
Weather: FZBCFG  (unknown weather)
Text: TEMPO 1906/1907 0700 FZBCFG NSC
Forecast period: 0200 to 0600 UTC 20 February 2019
Forecast type: TEMPORARY: The following changes expected for less than half the time period
Visibility: 0.31 miles (0.50 km)
Ceiling: unknown
Clouds: missing
Weather: FZBCFG  (unknown weather)